createdAt,value
2022-09-24T00:01:41.670Z,94955.00
2022-09-24T00:04:12.130Z,94954.19
2022-09-24T00:06:42.537Z,94950.44
2022-09-24T00:09:10.634Z,94945.94
2022-09-24T00:11:39.910Z,94940.38
2022-09-24T00:14:08.620Z,94945.31
2022-09-24T00:16:38.767Z,94948.09
2022-09-24T00:19:07.856Z,94947.13
2022-09-24T00:21:36.752Z,94950.06
2022-09-24T00:24:08.162Z,94954.78
2022-09-24T00:26:50.007Z,94954.00
2022-09-24T00:29:20.033Z,94950.41
2022-09-24T00:31:48.611Z,94953.13
2022-09-24T00:34:17.851Z,94941.66
2022-09-24T00:36:46.185Z,94943.63
2022-09-24T00:39:14.414Z,94942.66
2022-09-24T00:41:44.852Z,94933.94
2022-09-24T00:44:51.808Z,94941.16
2022-09-24T00:47:27.577Z,94933.94
2022-09-24T00:50:06.106Z,94925.81
2022-09-24T00:52:34.272Z,94930.00
2022-09-24T00:55:02.160Z,94929.22
2022-09-24T00:57:30.139Z,94934.75
2022-09-24T00:59:58.217Z,94927.84
2022-09-24T01:02:26.186Z,94924.47
2022-09-24T01:04:56.613Z,94926.63
2022-09-24T01:07:26.456Z,94916.38
2022-09-24T01:09:54.260Z,94916.38
2022-09-24T01:12:33.463Z,94913.19
2022-09-24T01:15:12.902Z,94911.53
2022-09-24T01:17:49.441Z,94915.75
2022-09-24T01:20:42.033Z,94906.28
2022-09-24T01:23:24.978Z,94907.91
2022-09-24T01:26:08.874Z,94904.50
2022-09-24T01:28:52.812Z,94894.06
2022-09-24T01:31:28.223Z,94898.63
2022-09-24T01:34:00.455Z,94898.25
2022-09-24T01:36:31.076Z,94891.69
2022-09-24T01:38:59.607Z,94895.09
2022-09-24T01:41:27.879Z,94889.94
2022-09-24T01:43:55.880Z,94881.00
2022-09-24T01:46:25.594Z,94893.38
2022-09-24T01:48:53.639Z,94880.38
2022-09-24T01:51:26.618Z,94880.63
2022-09-24T01:54:01.579Z,94878.22
2022-09-24T01:56:34.623Z,94873.69
2022-09-24T01:59:06.696Z,94863.88
2022-09-24T02:01:41.441Z,94865.81
2022-09-24T02:04:16.648Z,94873.75
2022-09-24T02:06:51.744Z,94856.06
2022-09-24T02:09:33.894Z,94865.53
2022-09-24T02:12:06.933Z,94859.03
2022-09-24T02:14:40.999Z,94857.28
2022-09-24T02:17:11.828Z,94850.19
2022-09-24T02:19:42.727Z,94844.25
2022-09-24T02:22:13.742Z,94842.66
2022-09-24T02:24:46.685Z,94847.63
2022-09-24T02:27:14.770Z,94841.28
2022-09-24T02:29:42.513Z,94843.03
2022-09-24T02:32:15.603Z,94836.72
2022-09-24T02:34:47.101Z,94834.56
2022-09-24T02:37:17.092Z,94834.75
2022-09-24T02:39:44.973Z,94835.53
2022-09-24T02:42:15.675Z,94825.06
2022-09-24T02:44:43.532Z,94837.72
2022-09-24T02:47:12.671Z,94830.03
2022-09-24T02:49:40.511Z,94836.34
2022-09-24T02:52:08.269Z,94829.03
2022-09-24T02:54:36.040Z,94831.63
2022-09-24T02:57:03.788Z,94833.97
2022-09-24T02:59:31.648Z,94820.75
2022-09-24T03:01:59.669Z,94829.31
2022-09-24T03:04:30.658Z,94822.78
2022-09-24T03:06:58.633Z,94814.47
2022-09-24T03:09:26.410Z,94816.47
2022-09-24T03:11:54.131Z,94826.19
2022-09-24T03:14:21.918Z,94822.03
2022-09-24T03:16:49.738Z,94816.31
2022-09-24T03:19:17.488Z,94822.41
2022-09-24T03:21:46.832Z,94824.00
2022-09-24T03:24:14.599Z,94824.16
2022-09-24T03:26:42.632Z,94829.63
2022-09-24T03:29:11.104Z,94829.41
2022-09-24T03:31:38.941Z,94827.44
2022-09-24T03:34:06.854Z,94831.97
2022-09-24T03:36:34.760Z,94819.72
2022-09-24T03:39:03.888Z,94815.38
2022-09-24T03:41:31.713Z,94824.06
2022-09-24T03:43:59.558Z,94822.00
2022-09-24T03:46:28.421Z,94826.16
2022-09-24T03:48:56.570Z,94827.72
2022-09-24T03:51:24.468Z,94816.22
2022-09-24T03:53:52.399Z,94819.53
2022-09-24T03:56:21.595Z,94812.63
2022-09-24T03:58:49.461Z,94811.47
2022-09-24T04:01:20.684Z,94808.47
2022-09-24T04:03:48.629Z,94804.34
2022-09-24T04:06:17.897Z,94802.75
2022-09-24T04:08:47.484Z,94801.91
2022-09-24T04:11:15.232Z,94806.03
2022-09-24T04:13:44.687Z,94793.63
2022-09-24T04:16:12.447Z,94794.66
2022-09-24T04:18:40.716Z,94780.44
2022-09-24T04:21:08.672Z,94786.19
2022-09-24T04:23:36.498Z,94783.41
2022-09-24T04:26:04.401Z,94791.56
2022-09-24T04:28:32.474Z,94787.16
2022-09-24T04:31:01.668Z,94788.69
2022-09-24T04:33:30.317Z,94794.03
2022-09-24T04:35:58.056Z,94787.97
2022-09-24T04:38:25.808Z,94791.72
2022-09-24T04:40:53.688Z,94789.38
2022-09-24T04:43:21.627Z,94797.34
2022-09-24T04:45:49.361Z,94795.19
2022-09-24T04:48:18.448Z,94783.72
2022-09-24T04:50:46.635Z,94788.22
2022-09-24T04:53:15.220Z,94781.47
2022-09-24T04:55:43.057Z,94782.88
2022-09-24T04:58:11.151Z,94778.53
2022-09-24T05:00:39.387Z,94771.59
2022-09-24T05:03:07.162Z,94771.38
2022-09-24T05:05:36.707Z,94771.38
2022-09-24T05:08:04.826Z,94766.66
2022-09-24T05:10:33.601Z,94764.72
2022-09-24T05:13:02.163Z,94764.16
2022-09-24T05:15:30.093Z,94781.25
2022-09-24T05:17:57.918Z,94771.97
2022-09-24T05:20:26.032Z,94762.69
2022-09-24T05:22:55.407Z,94770.38
2022-09-24T05:25:23.594Z,94776.16
2022-09-24T05:27:52.985Z,94772.81
2022-09-24T05:30:22.270Z,94768.88
2022-09-24T05:32:52.272Z,94759.00
2022-09-24T05:35:20.650Z,94768.25
2022-09-24T05:37:49.555Z,94767.81
2022-09-24T05:40:36.820Z,94774.72
2022-09-24T05:43:05.651Z,94773.63
2022-09-24T05:45:33.680Z,94771.28
2022-09-24T05:48:01.758Z,94781.91
2022-09-24T05:50:29.626Z,94780.44
2022-09-24T05:52:57.477Z,94787.78
2022-09-24T05:55:32.217Z,94788.78
2022-09-24T05:58:04.458Z,94788.44
2022-09-24T06:00:32.481Z,94792.41
2022-09-24T06:03:07.969Z,94787.81
2022-09-24T06:05:36.238Z,94793.59
2022-09-24T06:08:04.032Z,94798.84
2022-09-24T06:10:33.454Z,94796.94
2022-09-24T06:13:01.597Z,94800.97
2022-09-24T06:15:29.346Z,94814.75
2022-09-24T06:17:57.334Z,94818.69
2022-09-24T06:20:25.173Z,94816.28
2022-09-24T06:22:57.167Z,94825.81
2022-09-24T06:25:25.001Z,94818.78
2022-09-24T06:28:00.214Z,94816.88
2022-09-24T06:30:29.089Z,94825.06
2022-09-24T06:33:01.868Z,94817.56
2022-09-24T06:35:29.647Z,94814.53
2022-09-24T06:37:57.394Z,94810.97
2022-09-24T06:40:26.490Z,94813.44
2022-09-24T06:42:55.946Z,94814.88
2022-09-24T06:45:24.004Z,94818.03
2022-09-24T06:47:55.699Z,94812.53
2022-09-24T06:50:25.348Z,94821.59
2022-09-24T06:52:53.303Z,94821.59
2022-09-24T06:55:21.117Z,94833.16
2022-09-24T06:57:48.964Z,94830.13
2022-09-24T07:00:18.330Z,94830.19
2022-09-24T07:02:52.560Z,94833.47
2022-09-24T07:05:20.322Z,94835.84
2022-09-24T07:07:48.131Z,94835.16
2022-09-24T07:10:17.209Z,94837.63
2022-09-24T07:12:45.386Z,94837.94
2022-09-24T07:15:13.221Z,94839.09
2022-09-24T07:17:42.356Z,94841.69
2022-09-24T07:20:10.724Z,94838.94
2022-09-24T07:22:39.609Z,94840.44
2022-09-24T07:25:09.468Z,94842.78
2022-09-24T07:27:37.372Z,94844.38
2022-09-24T07:30:07.077Z,94837.63
2022-09-24T07:32:35.157Z,94844.38
2022-09-24T07:35:04.568Z,94843.25
2022-09-24T07:37:34.016Z,94846.63
2022-09-24T07:40:12.006Z,94852.50
2022-09-24T07:42:48.384Z,94863.06
2022-09-24T07:45:17.208Z,94860.88
2022-09-24T07:47:44.963Z,94863.06
2022-09-24T07:50:14.234Z,94862.22
2022-09-24T07:52:41.965Z,94874.31
2022-09-24T07:55:10.032Z,94868.41
2022-09-24T07:57:38.207Z,94870.72
2022-09-24T08:00:10.552Z,94871.13
2022-09-24T08:02:39.311Z,94884.78
2022-09-24T08:05:08.101Z,94882.06
2022-09-24T08:07:37.346Z,94883.03
2022-09-24T08:10:06.245Z,94879.91
2022-09-24T08:12:34.461Z,94871.41
2022-09-24T08:15:02.224Z,94872.66
2022-09-24T08:17:29.956Z,94878.81
2022-09-24T08:19:57.815Z,94881.78
2022-09-24T08:22:26.404Z,94876.69
2022-09-24T08:24:57.416Z,94878.00
2022-09-24T08:27:25.272Z,94875.63
2022-09-24T08:29:53.370Z,94877.25
2022-09-24T08:32:21.175Z,94878.19
2022-09-24T08:34:48.947Z,94872.06
2022-09-24T08:37:16.791Z,94873.91
2022-09-24T08:39:44.582Z,94875.91
2022-09-24T08:42:21.084Z,94881.31
2022-09-24T08:45:08.768Z,94874.13
2022-09-24T08:47:42.893Z,94867.50
2022-09-24T08:50:17.392Z,94864.97
2022-09-24T08:52:58.445Z,94876.28
2022-09-24T08:55:35.795Z,94877.91
2022-09-24T08:58:22.588Z,94880.50
2022-09-24T09:00:56.511Z,94890.13
2022-09-24T09:03:35.957Z,94886.41
2022-09-24T09:06:06.216Z,94903.63
2022-09-24T09:09:05.538Z,94901.03
2022-09-24T09:11:34.002Z,94904.47
2022-09-24T09:14:07.477Z,94898.34
2022-09-24T09:16:49.608Z,94908.84
2022-09-24T09:19:18.479Z,94907.38
2022-09-24T09:21:52.567Z,94902.75
2022-09-24T09:24:23.479Z,94903.38
2022-09-24T09:26:54.584Z,94901.44
2022-09-24T09:29:27.961Z,94907.28
2022-09-24T09:32:06.433Z,94901.81
2022-09-24T09:34:49.898Z,94910.75
2022-09-24T09:37:28.554Z,94905.34
2022-09-24T09:40:09.902Z,94912.16
2022-09-24T09:42:40.492Z,94912.41
2022-09-24T09:45:28.067Z,94901.53
2022-09-24T09:47:58.062Z,94914.81
2022-09-24T09:50:29.003Z,94915.72
2022-09-24T09:52:57.232Z,94907.31
2022-09-24T09:55:27.547Z,94909.78
2022-09-24T09:58:11.273Z,94900.88
2022-09-24T10:00:40.601Z,94906.34
2022-09-24T10:03:30.395Z,94906.41
2022-09-24T10:06:01.449Z,94898.66
2022-09-24T10:08:29.551Z,94900.69
2022-09-24T10:10:58.696Z,94899.78
2022-09-24T10:13:27.461Z,94896.88
2022-09-24T10:15:58.520Z,94899.47
2022-09-24T10:18:32.797Z,94887.69
2022-09-24T10:21:03.644Z,94903.19
2022-09-24T10:23:37.061Z,94895.44
2022-09-24T10:26:06.421Z,94892.19
2022-09-24T10:28:54.023Z,94881.41
2022-09-24T10:31:24.567Z,94894.66
2022-09-24T10:33:56.122Z,94890.94
2022-09-24T10:36:26.067Z,94884.75
2022-09-24T10:39:04.097Z,94892.97
2022-09-24T10:41:32.725Z,94894.63
2022-09-24T10:44:04.736Z,94891.50
2022-09-24T10:46:59.945Z,94880.63
2022-09-24T10:49:42.159Z,94880.84
2022-09-24T10:52:19.837Z,94882.53
2022-09-24T10:55:18.664Z,94885.56
2022-09-24T10:57:58.673Z,94885.13
2022-09-24T11:00:35.832Z,94879.59
2022-09-24T11:03:36.761Z,94888.25
2022-09-24T11:06:18.090Z,94879.38
2022-09-24T11:09:04.625Z,94879.59
2022-09-24T11:11:47.907Z,94882.09
2022-09-24T11:14:32.308Z,94881.97
2022-09-24T11:17:34.823Z,94880.50
2022-09-24T11:20:26.168Z,94883.44
2022-09-24T11:23:22.229Z,94894.78
2022-09-24T11:26:00.301Z,94883.28
2022-09-24T11:28:51.566Z,94881.94
2022-09-24T11:31:27.076Z,94883.03
2022-09-24T11:34:15.637Z,94883.03
2022-09-24T11:37:02.749Z,94873.84
2022-09-24T11:39:43.896Z,94881.97
2022-09-24T11:42:23.137Z,94879.97
2022-09-24T11:45:15.137Z,94877.63
2022-09-24T11:48:03.841Z,94873.38
2022-09-24T11:50:45.051Z,94880.69
2022-09-24T11:53:25.834Z,94883.41
2022-09-24T11:55:58.929Z,94883.03
2022-09-24T11:58:32.661Z,94892.50
2022-09-24T12:01:07.355Z,94876.63
2022-09-24T12:03:43.737Z,94878.16
2022-09-24T12:06:15.812Z,94880.19
2022-09-24T12:08:52.318Z,94876.97
2022-09-24T12:11:28.149Z,94872.72
2022-09-24T12:14:02.685Z,94873.78
2022-09-24T12:16:34.825Z,94872.09
2022-09-24T12:19:10.110Z,94876.84
2022-09-24T12:21:41.234Z,94869.56
2022-09-24T12:24:17.181Z,94861.72
2022-09-24T12:26:46.679Z,94856.66
2022-09-24T12:29:51.914Z,94862.75
2022-09-24T12:32:46.093Z,94869.22
2022-09-24T12:35:25.901Z,94863.31
2022-09-24T12:38:01.915Z,94873.66
2022-09-24T12:40:56.070Z,94854.66
2022-09-24T12:43:31.453Z,94864.91
2022-09-24T12:46:03.018Z,94857.75
2022-09-24T12:48:37.381Z,94865.31
2022-09-24T12:51:10.236Z,94860.75
2022-09-24T12:53:41.643Z,94851.66
2022-09-24T12:56:12.330Z,94848.03
2022-09-24T12:58:44.943Z,94861.47
2022-09-24T13:01:15.737Z,94858.78
2022-09-24T13:03:47.140Z,94854.88
2022-09-24T13:06:24.590Z,94854.69
2022-09-24T13:08:52.461Z,94849.38
2022-09-24T13:11:32.194Z,94857.69
2022-09-24T13:14:22.858Z,94857.63
2022-09-24T13:16:53.809Z,94854.38
2022-09-24T13:19:36.233Z,94864.44
2022-09-24T13:22:04.801Z,94863.66
2022-09-24T13:24:37.187Z,94855.94
2022-09-24T13:27:22.289Z,94861.59
2022-09-24T13:30:03.639Z,94851.00
2022-09-24T13:32:35.535Z,94852.59
2022-09-24T13:35:11.181Z,94843.34
2022-09-24T13:37:42.550Z,94847.78
2022-09-24T13:40:19.882Z,94843.03
2022-09-24T13:42:55.609Z,94850.81
2022-09-24T13:45:25.314Z,94853.09
2022-09-24T13:47:57.081Z,94843.03
2022-09-24T13:50:28.891Z,94844.28
2022-09-24T13:53:00.464Z,94836.38
2022-09-24T13:55:33.099Z,94842.00
2022-09-24T13:58:02.357Z,94843.44
2022-09-24T14:00:32.461Z,94841.53
2022-09-24T14:03:04.150Z,94833.31
2022-09-24T14:05:36.449Z,94837.47
2022-09-24T14:08:08.607Z,94838.31
2022-09-24T14:10:37.023Z,94846.34
2022-09-24T14:13:17.455Z,94848.84
2022-09-24T14:15:56.991Z,94843.00
2022-09-24T14:18:26.407Z,94837.41
2022-09-24T14:20:58.861Z,94838.69
2022-09-24T14:23:35.618Z,94839.47
2022-09-24T14:26:05.598Z,94844.66
2022-09-24T14:28:35.820Z,94844.19
2022-09-24T14:31:08.267Z,94838.19
2022-09-24T14:33:40.070Z,94833.63
2022-09-24T14:36:12.388Z,94830.25
2022-09-24T14:38:53.738Z,94823.25
2022-09-24T14:41:24.940Z,94823.91
2022-09-24T14:43:56.208Z,94830.66
2022-09-24T14:46:27.830Z,94821.22
2022-09-24T14:49:05.775Z,94817.28
2022-09-24T14:51:34.023Z,94821.63
2022-09-24T14:54:04.154Z,94823.06
2022-09-24T14:56:33.596Z,94824.16
2022-09-24T14:59:02.888Z,94818.19
2022-09-24T15:01:33.284Z,94824.91
2022-09-24T15:04:03.991Z,94810.66
2022-09-24T15:06:33.781Z,94810.53
2022-09-24T15:09:03.939Z,94805.44
2022-09-24T15:11:34.206Z,94798.28
2022-09-24T15:14:14.757Z,94778.22
2022-09-24T15:16:43.721Z,94780.59
2022-09-24T15:19:19.636Z,94767.56
2022-09-24T15:21:49.281Z,94764.09
2022-09-24T15:24:17.956Z,94757.22
2022-09-24T15:26:47.839Z,94761.16
2022-09-24T15:29:24.301Z,94756.69
2022-09-24T15:31:52.451Z,94760.59
2022-09-24T15:34:20.574Z,94758.50
2022-09-24T15:36:48.923Z,94752.59
2022-09-24T15:39:19.844Z,94758.38
2022-09-24T15:41:47.707Z,94761.31
2022-09-24T15:44:23.090Z,94751.00
2022-09-24T15:46:52.098Z,94754.16
2022-09-24T15:49:22.054Z,94744.88
2022-09-24T15:51:52.278Z,94745.97
2022-09-24T15:54:21.708Z,94738.47
2022-09-24T15:56:52.644Z,94748.22
2022-09-24T15:59:23.339Z,94728.81
2022-09-24T16:01:54.328Z,94732.63
2022-09-24T16:04:22.324Z,94736.78
2022-09-24T16:06:50.602Z,94728.22
2022-09-24T16:09:18.712Z,94729.00
2022-09-24T16:11:46.834Z,94733.59
2022-09-24T16:14:14.663Z,94724.31
2022-09-24T16:16:44.071Z,94727.34
2022-09-24T16:19:12.535Z,94725.91
2022-09-24T16:21:40.710Z,94724.66
2022-09-24T16:24:08.573Z,94732.84
2022-09-24T16:26:37.336Z,94735.88
2022-09-24T16:29:08.995Z,94724.31
2022-09-24T16:31:39.627Z,94729.16
2022-09-24T16:34:08.886Z,94715.25
2022-09-24T16:36:36.749Z,94725.91
2022-09-24T16:39:05.102Z,94727.47
2022-09-24T16:41:35.721Z,94739.00
2022-09-24T16:44:04.796Z,94735.66
2022-09-24T16:46:32.666Z,94731.97
2022-09-24T16:49:00.558Z,94735.44
2022-09-24T16:51:29.775Z,94741.81
2022-09-24T16:53:57.912Z,94740.13
2022-09-24T16:56:26.423Z,94742.50
2022-09-24T16:58:54.431Z,94736.22
2022-09-24T17:01:23.347Z,94734.09
2022-09-24T17:03:52.824Z,94742.25
2022-09-24T17:06:22.574Z,94743.16
2022-09-24T17:09:09.328Z,94733.44
2022-09-24T17:11:40.594Z,94734.22
2022-09-24T17:14:11.528Z,94731.50
2022-09-24T17:16:39.722Z,94732.06
2022-09-24T17:19:08.225Z,94732.88
2022-09-24T17:21:36.842Z,94733.66
2022-09-24T17:24:06.418Z,94736.44
2022-09-24T17:26:34.850Z,94739.25
2022-09-24T17:29:03.197Z,94743.06
2022-09-24T17:31:31.929Z,94733.06
2022-09-24T17:34:01.708Z,94729.69
2022-09-24T17:36:31.028Z,94730.13
2022-09-24T17:38:59.353Z,94728.59
2022-09-24T17:41:30.262Z,94734.19
2022-09-24T17:44:00.246Z,94728.31
2022-09-24T17:46:29.804Z,94732.84
2022-09-24T17:48:59.414Z,94731.63
2022-09-24T17:51:30.310Z,94734.19
2022-09-24T17:53:58.079Z,94731.06
2022-09-24T17:56:29.323Z,94732.69
2022-09-24T17:58:57.503Z,94726.75
2022-09-24T18:01:27.763Z,94736.69
2022-09-24T18:03:57.573Z,94731.22
2022-09-24T18:06:30.523Z,94738.84
2022-09-24T18:09:02.667Z,94738.91
2022-09-24T18:11:33.578Z,94743.13
2022-09-24T18:14:03.230Z,94750.75
2022-09-24T18:16:32.430Z,94748.91
2022-09-24T18:19:01.588Z,94754.03
2022-09-24T18:21:30.598Z,94753.44
2022-09-24T18:24:00.493Z,94749.44
2022-09-24T18:26:32.412Z,94740.63
2022-09-24T18:29:03.988Z,94745.78
2022-09-24T18:31:33.333Z,94739.16
2022-09-24T18:34:03.991Z,94753.59
2022-09-24T18:36:32.825Z,94751.03
2022-09-24T18:39:00.870Z,94750.59
2022-09-24T18:41:30.751Z,94756.09
2022-09-24T18:43:59.721Z,94758.22
2022-09-24T18:46:30.918Z,94761.38
2022-09-24T18:49:00.473Z,94757.03
2022-09-24T18:51:32.181Z,94756.22
2022-09-24T18:54:03.079Z,94762.19
2022-09-24T18:56:31.563Z,94755.81
2022-09-24T18:59:09.484Z,94761.38
2022-09-24T19:01:40.284Z,94754.50
2022-09-24T19:04:10.670Z,94764.94
2022-09-24T19:06:40.113Z,94765.72
2022-09-24T19:09:09.150Z,94770.53
2022-09-24T19:11:38.183Z,94764.47
2022-09-24T19:14:06.566Z,94773.19
2022-09-24T19:16:34.627Z,94770.63
2022-09-24T19:19:06.778Z,94764.91
2022-09-24T19:21:34.711Z,94761.31
2022-09-24T19:24:03.227Z,94759.53
2022-09-24T19:26:33.753Z,94756.88
2022-09-24T19:29:02.410Z,94761.44
2022-09-24T19:31:32.548Z,94755.50
2022-09-24T19:34:03.065Z,94763.78
2022-09-24T19:36:36.209Z,94772.84
2022-09-24T19:39:06.683Z,94773.09
2022-09-24T19:41:34.568Z,94760.75
2022-09-24T19:44:08.228Z,94764.59
2022-09-24T19:46:38.355Z,94765.66
2022-09-24T19:49:07.575Z,94760.59
2022-09-24T19:51:37.703Z,94764.75
2022-09-24T19:54:07.928Z,94765.88
2022-09-24T19:56:36.398Z,94756.59
2022-09-24T19:59:05.070Z,94761.97
2022-09-24T20:01:34.247Z,94757.59
2022-09-24T20:04:05.156Z,94759.38
2022-09-24T20:06:34.969Z,94761.53
2022-09-24T20:09:04.973Z,94751.56
2022-09-24T20:11:33.345Z,94744.41
2022-09-24T20:14:01.744Z,94757.88
2022-09-24T20:16:32.562Z,94751.25
2022-09-24T20:19:01.651Z,94751.94
2022-09-24T20:21:32.274Z,94754.06
2022-09-24T20:24:01.356Z,94752.50
2022-09-24T20:26:48.516Z,94750.38
2022-09-24T20:29:19.620Z,94748.66
2022-09-24T20:31:52.537Z,94756.59
2022-09-24T20:34:22.001Z,94752.72
2022-09-24T20:36:50.762Z,94758.97
2022-09-24T20:39:19.041Z,94757.41
2022-09-24T20:41:49.289Z,94749.66
2022-09-24T20:44:17.232Z,94749.91
2022-09-24T20:46:45.258Z,94734.88
2022-09-24T20:49:19.236Z,94752.78
2022-09-24T20:51:47.066Z,94747.88
2022-09-24T20:54:15.019Z,94758.59
2022-09-24T20:56:43.223Z,94757.81
2022-09-24T20:59:12.433Z,94751.31
2022-09-24T21:01:41.499Z,94751.00
2022-09-24T21:04:09.383Z,94748.34
2022-09-24T21:06:37.408Z,94745.31
2022-09-24T21:09:05.487Z,94757.41
2022-09-24T21:11:33.516Z,94757.88
2022-09-24T21:14:02.926Z,94769.03
2022-09-24T21:16:34.692Z,94766.91
2022-09-24T21:19:04.754Z,94763.75
2022-09-24T21:21:35.489Z,94766.47
2022-09-24T21:24:03.596Z,94768.47
2022-09-24T21:26:33.588Z,94763.09
2022-09-24T21:29:03.475Z,94771.81
2022-09-24T21:31:33.962Z,94776.84
2022-09-24T21:34:02.084Z,94774.03
2022-09-24T21:36:32.296Z,94766.75
2022-09-24T21:39:01.749Z,94771.91
2022-09-24T21:41:31.667Z,94770.91
2022-09-24T21:44:00.359Z,94769.47
2022-09-24T21:46:31.099Z,94774.09
2022-09-24T21:49:01.117Z,94772.31
2022-09-24T21:51:30.110Z,94775.06
2022-09-24T21:54:00.984Z,94777.72
2022-09-24T21:56:29.431Z,94776.66
2022-09-24T21:58:57.413Z,94776.66
2022-09-24T22:01:27.622Z,94772.19
2022-09-24T22:03:56.626Z,94780.91
2022-09-24T22:06:28.686Z,94772.38
2022-09-24T22:08:57.845Z,94767.53
2022-09-24T22:11:26.398Z,94770.94
2022-09-24T22:13:54.735Z,94790.44
2022-09-24T22:16:23.159Z,94813.00
2022-09-24T22:18:51.023Z,94810.97
2022-09-24T22:21:18.842Z,94822.03
2022-09-24T22:23:48.256Z,94820.63
2022-09-24T22:26:16.015Z,94817.97
2022-09-24T22:28:43.941Z,94816.25
2022-09-24T22:31:13.755Z,94810.75
2022-09-24T22:33:59.272Z,94809.09
2022-09-24T22:36:31.186Z,94807.56
2022-09-24T22:39:01.885Z,94786.41
2022-09-24T22:41:30.889Z,94782.41
2022-09-24T22:43:59.334Z,94757.88
2022-09-24T22:46:27.965Z,94756.22
2022-09-24T22:48:56.476Z,94759.44
2022-09-24T22:51:26.408Z,94760.38
2022-09-24T22:53:55.091Z,94741.72
2022-09-24T22:56:26.128Z,94737.94
2022-09-24T22:58:55.917Z,94740.41
2022-09-24T23:01:25.722Z,94731.84
2022-09-24T23:03:55.649Z,94721.81
2022-09-24T23:06:23.902Z,94727.28
2022-09-24T23:08:53.099Z,94729.16
2022-09-24T23:11:23.291Z,94723.28
2022-09-24T23:13:56.020Z,94715.44
2022-09-24T23:16:26.087Z,94728.91
2022-09-24T23:18:56.112Z,94736.09
2022-09-24T23:21:26.758Z,94736.38
2022-09-24T23:23:55.221Z,94736.19
2022-09-24T23:26:42.259Z,94739.84
2022-09-24T23:29:12.445Z,94745.81
2022-09-24T23:31:40.611Z,94755.34
2022-09-24T23:34:08.528Z,94759.53
2022-09-24T23:36:37.838Z,94764.94
2022-09-24T23:39:06.250Z,94758.69
2022-09-24T23:41:34.474Z,94763.59
2022-09-24T23:44:02.863Z,94763.81
2022-09-24T23:46:33.813Z,94756.72
2022-09-24T23:49:01.823Z,94748.06
2022-09-24T23:51:29.713Z,94763.59
2022-09-24T23:53:57.587Z,94761.81
2022-09-24T23:56:25.398Z,94762.00
2022-09-24T23:58:53.342Z,94757.72
